Terminal Aerodrome Forecast
Issued by NWS

Home | Current Version | Previous Version | Graphics & Text | Print | Product List | Glossary On
Versions: 1 2 3 4 5 6 7 8 9 10 11 12 13 14
000
FTUS43 KBIS 181100
TAFDIK
TAF
KDIK 181129Z 1812/1912 13016KT P6SM OVC100
     FM181400 13020G27KT P6SM SCT140 BKN250
     FM181900 14022G27KT P6SM VCSH SCT080 BKN110
     FM182300 16011KT P6SM VCSH BKN080 BKN100
     FM190300 31008KT P6SM SCT070 SCT150
     FM190600 27014KT P6SM FEW250=

USA.gov is the U.S. government's official web portal to all federal, state and local government web resources and services.